Time;durP1;ratioP1;P1;durP2;ratioP2;P2;SDS_P1;SDS_P2;PMS_P1;PMS_P2;Temp;Humidity;BMP_temperature;BMP_pressure;BME280_temperature;BME280_humidity;BME280_pressure;Samples;Min_cycle;Max_cycle;Signal;HPM_P1;HPM_P2
2022/06/18 00:00:56;;;;;;;;;;;;;;;;;;4971813;28;19909;-86
2022/06/18 00:03:22;;;;;;;;;;;;;;;;;;4970999;28;19914;-85
2022/06/18 00:05:48;;;;;;;;;;;;;;;;;;4984584;28;20074;-86
2022/06/18 00:08:14;;;;;;;;;;;;;;;;;;4983887;28;20258;-86
2022/06/18 00:10:40;;;;;;;;;;;;;;;;;;4986795;28;19913;-87
2022/06/18 00:15:51;;;;;;;;;;;;;;;;;;4981111;28;20340;-86
2022/06/18 00:18:17;;;;;;;;;;;;;;;;;;4983510;28;20421;-86
2022/06/18 00:20:43;;;;;;;;;;;;;;;;;;4982752;28;20005;-86
2022/06/18 00:23:09;;;;;;;;;;;;;;;;;;4965229;28;19960;-85
2022/06/18 00:25:35;;;;;;;;;;;;;;;;;;4972002;28;20106;-86
2022/06/18 00:28:01;;;;;;;;;;;;;;;;;;4968474;28;20017;-85
2022/06/18 00:30:26;;;;;;;;;;;;;;;;;;4972062;28;19914;-86
2022/06/18 00:32:52;;;;;;;;;;;;;;;;;;4967190;28;20270;-86
2022/06/18 00:35:18;;;;;;;;;;;;;;;;;;4977593;28;19917;-86
2022/06/18 00:37:44;;;;;;;;;;;;;;;;;;4957144;28;20397;-87
2022/06/18 00:40:10;;;;;;;;;;;;;;;;;;4971528;28;19913;-86
2022/06/18 00:42:37;;;;;;;;;;;;;;;;;;4980692;28;20356;-85
2022/06/18 00:45:03;;;;;;;;;;;;;;;;;;4967069;28;20376;-86
2022/06/18 00:47:28;;;;;;;;;;;;;;;;;;4971256;28;19993;-86
2022/06/18 00:49:54;;;;;;;;;;;;;;;;;;4967213;28;19925;-86
2022/06/18 00:52:20;;;;;;;;;;;;;;;;;;4970867;28;19913;-87
2022/06/18 00:54:46;;;;;;;;;;;;;;;;;;4987253;28;19968;-86
2022/06/18 00:57:12;;;;;;;;;;;;;;;;;;4967713;28;19917;-87
2022/06/18 00:59:38;;;;;;;;;;;;;;;;;;4968124;28;19910;-87
2022/06/18 01:02:04;;;;;;;;;;;;;;;;;;4979557;28;19922;-87
2022/06/18 01:04:30;;;;;;;;;;;;;;;;;;4987424;28;19922;-87
2022/06/18 01:06:56;;;;;;;;;;;;;;;;;;4966632;28;19927;-86
2022/06/18 01:09:22;;;;;;;;;;;;;;;;;;4969295;28;19918;-85
2022/06/18 01:11:48;;;;;;;;;;;;;;;;;;4978440;28;19936;-86
2022/06/18 01:14:14;;;;;;;;;;;;;;;;;;4961952;28;20265;-86
2022/06/18 01:16:40;;;;;;;;;;;;;;;;;;4976690;28;19917;-85
2022/06/18 01:19:06;;;;;;;;;;;;;;;;;;4979537;28;19910;-86
2022/06/18 01:21:32;;;;;;;;;;;;;;;;;;4964896;28;20424;-86
2022/06/18 01:23:58;;;;;;;;;;;;;;;;;;4968314;28;19918;-86
2022/06/18 01:26:24;;;;;;;;;;;;;;;;;;4968217;28;19925;-86
2022/06/18 01:28:50;;;;;;;;;;;;;;;;;;4961652;28;19917;-86
2022/06/18 01:31:16;;;;;;;;;;;;;;;;;;4964476;28;19988;-87
2022/06/18 01:33:42;;;;;;;;;;;;;;;;;;4981775;28;19910;-86
2022/06/18 01:36:08;;;;;;;;;;;;;;;;;;4972356;28;19921;-86
2022/06/18 01:38:34;;;;;;;;;;;;;;;;;;4991262;28;19934;-86
2022/06/18 01:41:49;;;;;;;;;;;;;;;;;;4966907;28;19906;-86
2022/06/18 01:43:46;;;;;;;;;;;;;;;;;;4982502;28;19918;-86
2022/06/18 01:46:12;;;;;;;;;;;;;;;;;;4970327;28;19916;-86
2022/06/18 01:48:38;;;;;;;;;;;;;;;;;;4969035;28;20358;-86
2022/06/18 01:51:04;;;;;;;;;;;;;;;;;;4966055;28;20049;-87
2022/06/18 01:53:30;;;;;;;;;;;;;;;;;;4965890;28;19913;-86
2022/06/18 01:55:56;;;;;;;;;;;;;;;;;;4969151;28;19938;-86
2022/06/18 01:58:22;;;;;;;;;;;;;;;;;;4964522;28;19918;-87
2022/06/18 02:00:48;;;;;;;;;;;;;;;;;;4967730;28;20369;-86
2022/06/18 02:03:13;;;;;;;;;;;;;;;;;;4985911;28;19917;-86
2022/06/18 02:05:39;;;;;;;;;;;;;;;;;;4967905;28;20396;-86
2022/06/18 02:08:05;;;;;;;;;;;;;;;;;;4967681;28;19937;-86
2022/06/18 02:10:31;;;;;;;;;;;;;;;;;;4981957;28;19917;-86
2022/06/18 02:12:57;;;;;;;;;;;;;;;;;;4970702;28;19914;-86
2022/06/18 02:15:23;;;;;;;;;;;;;;;;;;4964786;28;19910;-86
2022/06/18 02:17:49;;;;;;;;;;;;;;;;;;4968884;28;20271;-87
2022/06/18 02:20:23;;;;;;;;;;;;;;;;;;4967346;28;20297;-87
2022/06/18 02:22:49;;;;;;;;;;;;;;;;;;4969169;28;19910;-86
2022/06/18 02:25:14;;;;;;;;;;;;;;;;;;4986814;28;19964;-86
2022/06/18 02:27:41;;;;;;;;;;;;;;;;;;4984178;28;19964;-87
2022/06/18 02:30:07;;;;;;;;;;;;;;;;;;4969321;28;19912;-86
2022/06/18 02:32:32;;;;;;;;;;;;;;;;;;4964090;28;20308;-86
2022/06/18 02:34:59;;;;;;;;;;;;;;;;;;4964070;28;19917;-86
2022/06/18 02:37:25;;;;;;;;;;;;;;;;;;4964747;28;19917;-86
2022/06/18 02:39:51;;;;;;;;;;;;;;;;;;4963527;28;19910;-86
2022/06/18 02:42:19;;;;;;;;;;;;;;;;;;4980429;28;19974;-86
2022/06/18 02:44:45;;;;;;;;;;;;;;;;;;4970112;28;20024;-86
2022/06/18 02:47:11;;;;;;;;;;;;;;;;;;4984681;28;19921;-86
2022/06/18 02:49:37;;;;;;;;;;;;;;;;;;4986557;28;19984;-86
2022/06/18 02:52:03;;;;;;;;;;;;;;;;;;4973527;28;19909;-85
2022/06/18 02:54:29;;;;;;;;;;;;;;;;;;4978589;28;20366;-86
2022/06/18 02:56:55;;;;;;;;;;;;;;;;;;4972580;28;19917;-86
2022/06/18 02:59:21;;;;;;;;;;;;;;;;;;4981764;28;19914;-85
2022/06/18 03:01:47;;;;;;;;;;;;;;;;;;4986332;28;20365;-86
2022/06/18 03:04:12;;;;;;;;;;;;;;;;;;4969844;28;20175;-85
2022/06/18 03:06:39;;;;;;;;;;;;;;;;;;4967082;28;19913;-85
2022/06/18 03:09:05;;;;;;;;;;;;;;;;;;4966471;28;19918;-87
2022/06/18 03:14:22;;;;;;;;;;;;;;;;;;4981897;28;19956;-86
2022/06/18 03:16:48;;;;;;;;;;;;;;;;;;4968241;28;19936;-85
2022/06/18 03:19:14;;;;;;;;;;;;;;;;;;4972404;28;20000;-86
2022/06/18 03:21:40;;;;;;;;;;;;;;;;;;4967458;28;20012;-87
2022/06/18 03:24:06;;;;;;;;;;;;;;;;;;4967029;28;19914;-87
2022/06/18 03:26:32;;;;;;;;;;;;;;;;;;4983390;28;19972;-86
2022/06/18 03:28:58;;;;;;;;;;;;;;;;;;4965815;28;20514;-86
2022/06/18 03:31:23;;;;;;;;;;;;;;;;;;4964127;28;19909;-86
2022/06/18 03:33:50;;;;;;;;;;;;;;;;;;4986910;28;19969;-86
2022/06/18 03:36:17;;;;;;;;;;;;;;;;;;4965989;28;20380;-86
2022/06/18 03:38:43;;;;;;;;;;;;;;;;;;4966519;28;19916;-86
2022/06/18 03:41:09;;;;;;;;;;;;;;;;;;4967905;28;19917;-86
2022/06/18 03:43:35;;;;;;;;;;;;;;;;;;4966663;28;19910;-86
2022/06/18 03:46:01;;;;;;;;;;;;;;;;;;4963054;28;20777;-86
2022/06/18 03:48:27;;;;;;;;;;;;;;;;;;4968753;28;20004;-86
2022/06/18 03:50:53;;;;;;;;;;;;;;;;;;4968423;28;19910;-86
2022/06/18 03:53:18;;;;;;;;;;;;;;;;;;4971753;28;19909;-86
2022/06/18 03:55:44;;;;;;;;;;;;;;;;;;4961407;28;20389;-87
2022/06/18 03:58:10;;;;;;;;;;;;;;;;;;4961656;28;20004;-86
2022/06/18 04:00:36;;;;;;;;;;;;;;;;;;4966441;28;19917;-85
2022/06/18 04:03:02;;;;;;;;;;;;;;;;;;4965803;28;20412;-86
2022/06/18 04:05:28;;;;;;;;;;;;;;;;;;4963741;28;19960;-86
2022/06/18 04:07:54;;;;;;;;;;;;;;;;;;4970484;28;20332;-86
2022/06/18 04:10:20;;;;;;;;;;;;;;;;;;4966429;28;19910;-86
2022/06/18 04:12:46;;;;;;;;;;;;;;;;;;4968140;28;19968;-86
2022/06/18 04:15:12;;;;;;;;;;;;;;;;;;4968257;28;19916;-85
2022/06/18 04:17:38;;;;;;;;;;;;;;;;;;4983501;28;20332;-86
2022/06/18 04:20:04;;;;;;;;;;;;;;;;;;4970131;28;19913;-86
2022/06/18 04:22:30;;;;;;;;;;;;;;;;;;4962913;28;20004;-85
2022/06/18 04:24:56;;;;;;;;;;;;;;;;;;4970245;28;19957;-86
2022/06/18 04:27:21;;;;;;;;;;;;;;;;;;4964055;28;19921;-86
2022/06/18 04:29:47;;;;;;;;;;;;;;;;;;4966985;28;20192;-86
2022/06/18 04:32:13;;;;;;;;;;;;;;;;;;4965549;28;19967;-87
2022/06/18 04:34:39;;;;;;;;;;;;;;;;;;4985078;28;20244;-87
2022/06/18 04:37:05;;;;;;;;;;;;;;;;;;4962680;28;19917;-86
2022/06/18 04:39:31;;;;;;;;;;;;;;;;;;4967786;28;19913;-86
2022/06/18 04:41:57;;;;;;;;;;;;;;;;;;4971547;28;19925;-86
2022/06/18 04:44:23;;;;;;;;;;;;;;;;;;4965314;28;19913;-87
2022/06/18 04:46:49;;;;;;;;;;;;;;;;;;4968550;28;19918;-86
2022/06/18 04:49:15;;;;;;;;;;;;;;;;;;4980852;28;19920;-86
2022/06/18 04:51:41;;;;;;;;;;;;;;;;;;4966543;28;19913;-86
2022/06/18 04:54:07;;;;;;;;;;;;;;;;;;4970367;28;19905;-87
2022/06/18 04:56:33;;;;;;;;;;;;;;;;;;4962088;28;19972;-87
2022/06/18 04:58:58;;;;;;;;;;;;;;;;;;4964469;28;20228;-86
2022/06/18 05:01:24;;;;;;;;;;;;;;;;;;4968404;28;19918;-86
2022/06/18 05:03:50;;;;;;;;;;;;;;;;;;4967026;28;20659;-87
2022/06/18 05:06:16;;;;;;;;;;;;;;;;;;4980997;28;19910;-86
2022/06/18 05:08:42;;;;;;;;;;;;;;;;;;4978906;28;20389;-87
2022/06/18 05:11:08;;;;;;;;;;;;;;;;;;4978211;28;20740;-86
2022/06/18 05:13:34;;;;;;;;;;;;;;;;;;4982168;28;19914;-87
2022/06/18 05:16:00;;;;;;;;;;;;;;;;;;4969600;28;20358;-87
2022/06/18 05:18:26;;;;;;;;;;;;;;;;;;4984131;28;20309;-87
2022/06/18 05:20:52;;;;;;;;;;;;;;;;;;4972251;28;19920;-87
2022/06/18 05:23:18;;;;;;;;;;;;;;;;;;4966636;28;20322;-86
2022/06/18 05:25:44;;;;;;;;;;;;;;;;;;4971124;28;19969;-87
2022/06/18 05:28:10;;;;;;;;;;;;;;;;;;4984454;28;20362;-87
2022/06/18 05:30:36;;;;;;;;;;;;;;;;;;4981006;28;19913;-86
2022/06/18 05:33:02;;;;;;;;;;;;;;;;;;4984813;28;19925;-87
2022/06/18 05:35:28;;;;;;;;;;;;;;;;;;4981446;28;19913;-86
2022/06/18 05:37:54;;;;;;;;;;;;;;;;;;4985668;28;19918;-87
2022/06/18 05:40:20;;;;;;;;;;;;;;;;;;4966979;28;19920;-87
2022/06/18 05:42:46;;;;;;;;;;;;;;;;;;4974653;28;19997;-87
2022/06/18 05:45:12;;;;;;;;;;;;;;;;;;4987453;28;20040;-86
2022/06/18 05:47:38;;;;;;;;;;;;;;;;;;4982223;28;19925;-88
2022/06/18 05:50:04;;;;;;;;;;;;;;;;;;4970525;28;19917;-87
2022/06/18 05:52:30;;;;;;;;;;;;;;;;;;4982865;28;20129;-87
2022/06/18 05:54:56;;;;;;;;;;;;;;;;;;4972608;28;19944;-87
2022/06/18 05:57:21;;;;;;;;;;;;;;;;;;4969625;28;19976;-87
2022/06/18 05:59:47;;;;;;;;;;;;;;;;;;4965425;28;19913;-87
2022/06/18 06:02:13;;;;;;;;;;;;;;;;;;4977289;28;19910;-87
2022/06/18 06:04:39;;;;;;;;;;;;;;;;;;4970967;28;20383;-87
2022/06/18 06:07:05;;;;;;;;;;;;;;;;;;4969038;28;19921;-87
2022/06/18 06:12:16;;;;;;;;;;;;;;;;;;4981915;28;19960;-87
2022/06/18 06:14:42;;;;;;;;;;;;;;;;;;4979913;28;19961;-87
2022/06/18 06:17:08;;;;;;;;;;;;;;;;;;4971139;28;20004;-88
2022/06/18 06:19:34;;;;;;;;;;;;;;;;;;4973617;28;20446;-87
2022/06/18 06:22:00;;;;;;;;;;;;;;;;;;4977505;28;19921;-87
2022/06/18 06:24:25;;;;;;;;;;;;;;;;;;4980267;28;19980;-87
2022/06/18 06:26:51;;;;;;;;;;;;;;;;;;4967311;28;19965;-87
2022/06/18 06:29:17;;;;;;;;;;;;;;;;;;4964867;28;19916;-87
2022/06/18 06:31:43;;;;;;;;;;;;;;;;;;4966402;28;19910;-87
2022/06/18 06:34:09;;;;;;;;;;;;;;;;;;4971330;28;19916;-87
2022/06/18 06:36:35;;;;;;;;;;;;;;;;;;4963727;28;19944;-87
2022/06/18 06:39:01;;;;;;;;;;;;;;;;;;4969974;28;19924;-88
2022/06/18 06:41:27;;;;;;;;;;;;;;;;;;4962697;28;19910;-87
2022/06/18 06:43:53;;;;;;;;;;;;;;;;;;4965040;28;19910;-87
2022/06/18 06:46:19;;;;;;;;;;;;;;;;;;4966936;28;20001;-87
2022/06/18 06:48:45;;;;;;;;;;;;;;;;;;4969747;28;19945;-88
2022/06/18 06:51:10;;;;;;;;;;;;;;;;;;4956045;28;19910;-87
2022/06/18 06:53:36;;;;;;;;;;;;;;;;;;4966147;28;20356;-89
2022/06/18 06:58:47;;;;;;;;;;;;;;;;;;4979789;28;19929;-88
2022/06/18 07:01:13;;;;;;;;;;;;;;;;;;4978709;28;19913;-87
2022/06/18 07:03:39;;;;;;;;;;;;;;;;;;4966293;28;19910;-87
2022/06/18 07:06:05;;;;;;;;;;;;;;;;;;4964706;28;19914;-87
2022/06/18 07:08:31;;;;;;;;;;;;;;;;;;4965522;28;19929;-87
2022/06/18 07:10:57;;;;;;;;;;;;;;;;;;4983474;28;20392;-88
2022/06/18 07:13:22;;;;;;;;;;;;;;;;;;4965987;28;19944;-88
2022/06/18 07:15:48;;;;;;;;;;;;;;;;;;4961973;28;19971;-88
2022/06/18 07:18:14;;;;;;;;;;;;;;;;;;4967508;28;20255;-87
2022/06/18 07:20:40;;;;;;;;;;;;;;;;;;4958663;28;22653;-88
2022/06/18 07:23:07;;;;;;;;;;;;;;;;;;4966495;28;20979;-87
2022/06/18 07:25:33;;;;;;;;;;;;;;;;;;4965085;28;20027;-87
2022/06/18 07:27:58;;;;;;;;;;;;;;;;;;4969454;28;19910;-87
2022/06/18 07:30:24;;;;;;;;;;;;;;;;;;4979446;28;20046;-87
2022/06/18 07:32:50;;;;;;;;;;;;;;;;;;4963559;28;20008;-88
2022/06/18 07:35:16;;;;;;;;;;;;;;;;;;4963471;28;20320;-88
2022/06/18 07:37:42;;;;;;;;;;;;;;;;;;4972213;28;19933;-87
2022/06/18 07:40:08;;;;;;;;;;;;;;;;;;4969312;28;19914;-88
2022/06/18 07:42:34;;;;;;;;;;;;;;;;;;4974219;28;20002;-87
2022/06/18 07:45:00;;;;;;;;;;;;;;;;;;4967227;28;19968;-87
2022/06/18 07:47:26;;;;;;;;;;;;;;;;;;4969845;28;19957;-88
2022/06/18 07:49:58;;;;;;;;;;;;;;;;;;4957027;28;19960;-87
2022/06/18 07:52:24;;;;;;;;;;;;;;;;;;4980263;28;20223;-88
2022/06/18 07:54:50;;;;;;;;;;;;;;;;;;4968263;28;19952;-87
2022/06/18 07:57:16;;;;;;;;;;;;;;;;;;4968486;28;19918;-87
2022/06/18 07:59:42;;;;;;;;;;;;;;;;;;4968444;28;19917;-88
2022/06/18 08:02:07;;;;;;;;;;;;;;;;;;4981081;28;20011;-89
2022/06/18 08:04:33;;;;;;;;;;;;;;;;;;4963745;28;20017;-87
2022/06/18 08:06:59;;;;;;;;;;;;;;;;;;4966803;28;19963;-87
2022/06/18 08:09:25;;;;;;;;;;;;;;;;;;4962999;28;19952;-87
2022/06/18 08:11:51;;;;;;;;;;;;;;;;;;4967517;28;19961;-87
2022/06/18 08:14:17;;;;;;;;;;;;;;;;;;4960923;28;19921;-88
2022/06/18 08:16:44;;;;;;;;;;;;;;;;;;4958136;28;19914;-87
2022/06/18 08:19:10;;;;;;;;;;;;;;;;;;4968719;28;19945;-88
2022/06/18 08:21:35;;;;;;;;;;;;;;;;;;4964654;28;20179;-88
2022/06/18 08:24:01;;;;;;;;;;;;;;;;;;4979702;28;19922;-87
2022/06/18 08:26:27;;;;;;;;;;;;;;;;;;4965043;28;19968;-87
2022/06/18 08:28:53;;;;;;;;;;;;;;;;;;4963912;28;19952;-88
2022/06/18 08:31:19;;;;;;;;;;;;;;;;;;4960202;28;19918;-87
2022/06/18 08:33:45;;;;;;;;;;;;;;;;;;4963433;28;19918;-87
2022/06/18 08:36:11;;;;;;;;;;;;;;;;;;4978507;28;19910;-89
2022/06/18 08:38:37;;;;;;;;;;;;;;;;;;4956163;28;19918;-90
2022/06/18 08:41:03;;;;;;;;;;;;;;;;;;4967284;28;19920;-87
2022/06/18 08:43:29;;;;;;;;;;;;;;;;;;4966737;28;19941;-90
2022/06/18 08:45:58;;;;;;;;;;;;;;;;;;4975355;28;19953;-90
2022/06/18 08:48:24;;;;;;;;;;;;;;;;;;4981530;28;19910;-85
2022/06/18 08:50:49;;;;;;;;;;;;;;;;;;4970984;28;19910;-81
2022/06/18 08:53:15;;;;;;;;;;;;;;;;;;4984876;28;20282;-86
2022/06/18 08:55:41;;;;;;;;;;;;;;;;;;4967289;28;20396;-85
2022/06/18 08:58:07;;;;;;;;;;;;;;;;;;4982304;28;19918;-82
2022/06/18 09:00:33;;;;;;;;;;;;;;;;;;4960297;28;19921;-82
2022/06/18 09:02:59;;;;;;;;;;;;;;;;;;4964289;28;19959;-80
2022/06/18 09:05:25;;;;;;;;;;;;;;;;;;4965664;28;19920;-82
2022/06/18 09:07:51;;;;;;;;;;;;;;;;;;4983012;28;19913;-81
2022/06/18 09:10:17;;;;;;;;;;;;;;;;;;4970740;28;20193;-81
2022/06/18 09:12:43;;;;;;;;;;;;;;;;;;4981997;28;19933;-81
2022/06/18 09:15:09;;;;;;;;;;;;;;;;;;4965609;28;19910;-81
2022/06/18 09:17:35;;;;;;;;;;;;;;;;;;4964037;28;19947;-81
2022/06/18 09:20:01;;;;;;;;;;;;;;;;;;4970745;28;19917;-81
2022/06/18 09:22:27;;;;;;;;;;;;;;;;;;4970436;28;19957;-81
2022/06/18 09:24:53;;;;;;;;;;;;;;;;;;4963725;28;20075;-81
2022/06/18 09:27:19;;;;;;;;;;;;;;;;;;4965832;28;20708;-81
2022/06/18 09:29:45;;;;;;;;;;;;;;;;;;4964310;28;20032;-81
2022/06/18 09:32:11;;;;;;;;;;;;;;;;;;4963129;28;19951;-81
2022/06/18 09:34:37;;;;;;;;;;;;;;;;;;4969405;28;19913;-81
2022/06/18 09:37:03;;;;;;;;;;;;;;;;;;4963519;28;20293;-80
2022/06/18 09:39:29;;;;;;;;;;;;;;;;;;4983170;28;19914;-81
2022/06/18 09:41:56;;;;;;;;;;;;;;;;;;4975797;28;19914;-81
2022/06/18 09:44:22;;;;;;;;;;;;;;;;;;4981137;28;19933;-81
2022/06/18 09:46:47;;;;;;;;;;;;;;;;;;4960691;28;19913;-81
2022/06/18 09:49:13;;;;;;;;;;;;;;;;;;4964166;28;19949;-81
2022/06/18 09:51:41;;;;;;;;;;;;;;;;;;4964871;28;20004;-81
2022/06/18 09:54:07;;;;;;;;;;;;;;;;;;4964531;28;19957;-81
2022/06/18 09:56:35;;;;;;;;;;;;;;;;;;4956872;28;19960;-82
2022/06/18 09:59:01;;;;;;;;;;;;;;;;;;4962300;28;19910;-82
2022/06/18 10:01:27;;;;;;;;;;;;;;;;;;4984828;28;20316;-82
2022/06/18 10:06:55;;;;;;;;;;;;;;;;;;4982175;28;20009;-82
2022/06/18 10:09:21;;;;;;;;;;;;;;;;;;4958016;28;19928;-82
2022/06/18 10:11:47;;;;;;;;;;;;;;;;;;4966889;28;19910;-82
2022/06/18 10:14:12;;;;;;;;;;;;;;;;;;4966515;28;20788;-81
2022/06/18 10:16:38;;;;;;;;;;;;;;;;;;4963209;28;19914;-81
2022/06/18 10:19:04;;;;;;;;;;;;;;;;;;4964861;28;21183;-81
2022/06/18 10:21:30;;;;;;;;;;;;;;;;;;4982305;28;19968;-81
2022/06/18 10:23:56;;;;;;;;;;;;;;;;;;4987971;28;19914;-81
2022/06/18 10:26:22;;;;;;;;;;;;;;;;;;4988072;28;19909;-81
2022/06/18 10:28:48;;;;;;;;;;;;;;;;;;4971283;28;21176;-82
2022/06/18 10:31:14;;;;;;;;;;;;;;;;;;4969189;28;19920;-82
2022/06/18 10:33:42;;;;;;;;;;;;;;;;;;4975675;28;19916;-81
2022/06/18 10:36:08;;;;;;;;;;;;;;;;;;4966713;28;20366;-81
2022/06/18 10:38:34;;;;;;;;;;;;;;;;;;4985098;28;19964;-81
2022/06/18 10:41:00;;;;;;;;;;;;;;;;;;4968252;28;20012;-81
2022/06/18 10:43:26;;;;;;;;;;;;;;;;;;4978133;28;19917;-82
2022/06/18 10:45:52;;;;;;;;;;;;;;;;;;4975574;28;20008;-81
2022/06/18 10:48:18;;;;;;;;;;;;;;;;;;4967103;28;20055;-81
2022/06/18 10:50:44;;;;;;;;;;;;;;;;;;4969789;28;19924;-82
2022/06/18 10:53:11;;;;;;;;;;;;;;;;;;4965918;28;19925;-82
2022/06/18 10:55:37;;;;;;;;;;;;;;;;;;4967902;28;19906;-82
2022/06/18 10:58:03;;;;;;;;;;;;;;;;;;4981195;28;19913;-82
2022/06/18 11:00:28;;;;;;;;;;;;;;;;;;4980180;28;19917;-81
2022/06/18 11:02:54;;;;;;;;;;;;;;;;;;4967251;28;20431;-82
2022/06/18 11:05:20;;;;;;;;;;;;;;;;;;4965179;28;19909;-82
2022/06/18 11:07:46;;;;;;;;;;;;;;;;;;4984493;28;20550;-82
2022/06/18 11:10:12;;;;;;;;;;;;;;;;;;4958771;28;19913;-82
2022/06/18 11:12:38;;;;;;;;;;;;;;;;;;4966657;28;19913;-82
2022/06/18 11:15:04;;;;;;;;;;;;;;;;;;4968943;28;20008;-81
2022/06/18 11:17:30;;;;;;;;;;;;;;;;;;4978010;28;19918;-82
2022/06/18 11:19:56;;;;;;;;;;;;;;;;;;4982007;28;19918;-82
2022/06/18 11:22:21;;;;;;;;;;;;;;;;;;4963434;28;19918;-83
2022/06/18 11:24:47;;;;;;;;;;;;;;;;;;4969594;28;19917;-82
2022/06/18 11:27:13;;;;;;;;;;;;;;;;;;4980794;28;19921;-82
2022/06/18 11:29:42;;;;;;;;;;;;;;;;;;4981036;28;20039;-82
2022/06/18 11:32:08;;;;;;;;;;;;;;;;;;4961481;28;20380;-82
2022/06/18 11:34:34;;;;;;;;;;;;;;;;;;4968452;28;19925;-82
2022/06/18 11:37:00;;;;;;;;;;;;;;;;;;4982913;28;19949;-83
2022/06/18 11:39:26;;;;;;;;;;;;;;;;;;4966320;28;19910;-80
2022/06/18 11:41:52;;;;;;;;;;;;;;;;;;4965369;28;19917;-80
2022/06/18 11:44:18;;;;;;;;;;;;;;;;;;4969160;28;19976;-80
2022/06/18 11:46:44;;;;;;;;;;;;;;;;;;4964265;28;19909;-80
2022/06/18 11:49:10;;;;;;;;;;;;;;;;;;4960299;28;19909;-81
2022/06/18 11:51:36;;;;;;;;;;;;;;;;;;4974616;28;19929;-81
2022/06/18 11:54:02;;;;;;;;;;;;;;;;;;4982041;28;19988;-79
2022/06/18 11:56:28;;;;;;;;;;;;;;;;;;4965502;28;19914;-79
2022/06/18 11:58:53;;;;;;;;;;;;;;;;;;4966014;28;20604;-79
2022/06/18 12:01:19;;;;;;;;;;;;;;;;;;4965452;28;20289;-79
2022/06/18 12:03:45;;;;;;;;;;;;;;;;;;4964573;28;19925;-78
2022/06/18 12:06:11;;;;;;;;;;;;;;;;;;4972706;28;19917;-79
2022/06/18 12:08:37;;;;;;;;;;;;;;;;;;4982217;28;20270;-82
2022/06/18 12:11:04;;;;;;;;;;;;;;;;;;4966612;28;19910;-79
2022/06/18 12:13:32;;;;;;;;;;;;;;;;;;4966223;28;20333;-79
2022/06/18 12:15:58;;;;;;;;;;;;;;;;;;4979966;28;19918;-79
2022/06/18 12:18:24;;;;;;;;;;;;;;;;;;4985492;28;19920;-79
2022/06/18 12:20:50;;;;;;;;;;;;;;;;;;4977922;28;19995;-79
2022/06/18 12:23:16;;;;;;;;;;;;;;;;;;4981732;28;19933;-79
2022/06/18 12:25:42;;;;;;;;;;;;;;;;;;4960410;28;20337;-82
2022/06/18 12:28:07;;;;;;;;;;;;;;;;;;4962278;28;19953;-81
2022/06/18 12:30:33;;;;;;;;;;;;;;;;;;4979307;28;20420;-81
2022/06/18 12:32:59;;;;;;;;;;;;;;;;;;4977299;28;19917;-81
2022/06/18 12:35:26;;;;;;;;;;;;;;;;;;4979447;28;19917;-81
2022/06/18 12:37:52;;;;;;;;;;;;;;;;;;4970992;28;20017;-81
2022/06/18 12:40:17;;;;;;;;;;;;;;;;;;4965686;28;20431;-81
2022/06/18 12:42:43;;;;;;;;;;;;;;;;;;4967002;28;19909;-81
2022/06/18 12:45:09;;;;;;;;;;;;;;;;;;4974435;28;19933;-80
2022/06/18 12:47:35;;;;;;;;;;;;;;;;;;4974114;28;19917;-81
2022/06/18 12:50:01;;;;;;;;;;;;;;;;;;4966364;28;19972;-81
2022/06/18 12:52:27;;;;;;;;;;;;;;;;;;4966153;28;20600;-81
2022/06/18 12:54:53;;;;;;;;;;;;;;;;;;4961059;28;20009;-80
2022/06/18 12:57:19;;;;;;;;;;;;;;;;;;4978634;28;19924;-82
2022/06/18 12:59:45;;;;;;;;;;;;;;;;;;4964207;28;20005;-82
2022/06/18 13:02:11;;;;;;;;;;;;;;;;;;4963750;28;20425;-85
2022/06/18 13:04:43;;;;;;;;;;;;;;;;;;4959378;28;20007;-81
2022/06/18 13:07:09;;;;;;;;;;;;;;;;;;4975512;28;19914;-82
2022/06/18 13:09:35;;;;;;;;;;;;;;;;;;4978847;28;19925;-81
2022/06/18 13:12:01;;;;;;;;;;;;;;;;;;4962517;28;19914;-81
2022/06/18 13:14:27;;;;;;;;;;;;;;;;;;4980943;28;20433;-81
2022/06/18 13:16:54;;;;;;;;;;;;;;;;;;4964134;28;19945;-81
2022/06/18 13:19:20;;;;;;;;;;;;;;;;;;4965838;28;19909;-80
2022/06/18 13:21:46;;;;;;;;;;;;;;;;;;4964457;28;19918;-81
2022/06/18 13:29:41;;;;;;;;;;;;;;;;;;4979536;28;20008;-81
2022/06/18 13:32:06;;;;;;;;;;;;;;;;;;4963597;28;19913;-81
2022/06/18 13:34:32;;;;;;;;;;;;;;;;;;4966580;28;19910;-82
2022/06/18 13:36:58;;;;;;;;;;;;;;;;;;4983651;28;20399;-81
2022/06/18 13:39:24;;;;;;;;;;;;;;;;;;4971185;28;20009;-81
2022/06/18 13:41:50;;;;;;;;;;;;;;;;;;4963465;28;19945;-81
2022/06/18 13:44:16;;;;;;;;;;;;;;;;;;4985385;28;19976;-81
2022/06/18 13:46:42;;;;;;;;;;;;;;;;;;4986037;28;19914;-81
2022/06/18 13:49:08;;;;;;;;;;;;;;;;;;4969054;28;20000;-82
2022/06/18 13:51:34;;;;;;;;;;;;;;;;;;4980821;28;20334;-81
2022/06/18 13:54:00;;;;;;;;;;;;;;;;;;4982804;28;20009;-81
2022/06/18 13:56:26;;;;;;;;;;;;;;;;;;4968411;28;19917;-81
2022/06/18 13:58:52;;;;;;;;;;;;;;;;;;4985167;28;19917;-81
2022/06/18 14:01:18;;;;;;;;;;;;;;;;;;4965643;28;19909;-83
2022/06/18 14:03:44;;;;;;;;;;;;;;;;;;4968897;28;19918;-81
2022/06/18 14:06:10;;;;;;;;;;;;;;;;;;4980848;28;19914;-81
2022/06/18 14:08:36;;;;;;;;;;;;;;;;;;4968191;28;20586;-81
2022/06/18 14:11:02;;;;;;;;;;;;;;;;;;4960255;28;19977;-82
2022/06/18 14:13:28;;;;;;;;;;;;;;;;;;4964072;28;20377;-81
2022/06/18 14:15:54;;;;;;;;;;;;;;;;;;4967457;28;20359;-81
2022/06/18 14:18:20;;;;;;;;;;;;;;;;;;4962436;28;19914;-81
2022/06/18 14:20:46;;;;;;;;;;;;;;;;;;4967021;28;19920;-81
2022/06/18 14:23:12;;;;;;;;;;;;;;;;;;4966484;28;20549;-81
2022/06/18 14:25:38;;;;;;;;;;;;;;;;;;4984751;28;20282;-81
2022/06/18 14:28:04;;;;;;;;;;;;;;;;;;4967251;28;20169;-81
2022/06/18 14:30:31;;;;;;;;;;;;;;;;;;4967265;28;19920;-81
2022/06/18 14:32:59;;;;;;;;;;;;;;;;;;4981258;28;19918;-81
2022/06/18 14:35:24;;;;;;;;;;;;;;;;;;4990586;28;19909;-81
2022/06/18 14:37:50;;;;;;;;;;;;;;;;;;4976849;28;19924;-81
2022/06/18 14:40:16;;;;;;;;;;;;;;;;;;4968948;28;19996;-81
2022/06/18 14:42:42;;;;;;;;;;;;;;;;;;4971707;28;19914;-81
2022/06/18 14:45:08;;;;;;;;;;;;;;;;;;4969734;28;19917;-81
2022/06/18 14:47:34;;;;;;;;;;;;;;;;;;4968574;28;20260;-81
2022/06/18 14:50:00;;;;;;;;;;;;;;;;;;4984376;28;19914;-81
2022/06/18 14:52:26;;;;;;;;;;;;;;;;;;4986269;28;19979;-81
2022/06/18 14:54:52;;;;;;;;;;;;;;;;;;4968888;28;19918;-80
2022/06/18 14:57:18;;;;;;;;;;;;;;;;;;4965602;28;19917;-80
2022/06/18 14:59:44;;;;;;;;;;;;;;;;;;4967294;28;19909;-81
2022/06/18 15:02:10;;;;;;;;;;;;;;;;;;4970321;28;19925;-81
2022/06/18 15:04:36;;;;;;;;;;;;;;;;;;4964591;28;19926;-81
2022/06/18 15:07:02;;;;;;;;;;;;;;;;;;4980196;28;20021;-81
2022/06/18 15:09:28;;;;;;;;;;;;;;;;;;4981782;28;20344;-82
2022/06/18 15:11:54;;;;;;;;;;;;;;;;;;4963102;28;19918;-81
2022/06/18 15:14:21;;;;;;;;;;;;;;;;;;4965592;28;20365;-81
2022/06/18 15:17:04;;;;;;;;;;;;;;;;;;4964444;28;19921;-81
2022/06/18 15:21:59;;;;;;;;;;;;;;;;;;4976682;28;20381;-80
2022/06/18 15:26:58;;;;;;;;;;;;;;;;;;4985166;28;20517;-80
2022/06/18 15:29:24;;;;;;;;;;;;;;;;;;4956082;28;19913;-80
2022/06/18 15:31:49;;;;;;;;;;;;;;;;;;4959082;28;20000;-80
2022/06/18 15:34:15;;;;;;;;;;;;;;;;;;4967969;28;19987;-85
2022/06/18 15:36:41;;;;;;;;;;;;;;;;;;4965134;28;19910;-85
2022/06/18 15:39:07;;;;;;;;;;;;;;;;;;4961720;28;19906;-85
2022/06/18 15:41:33;;;;;;;;;;;;;;;;;;4962051;28;19972;-84
2022/06/18 15:43:59;;;;;;;;;;;;;;;;;;4967787;28;19989;-85
2022/06/18 15:46:25;;;;;;;;;;;;;;;;;;4966915;28;19909;-85
2022/06/18 15:48:51;;;;;;;;;;;;;;;;;;4965534;28;19906;-85
2022/06/18 15:51:17;;;;;;;;;;;;;;;;;;4966340;28;19917;-85
2022/06/18 15:53:43;;;;;;;;;;;;;;;;;;4964743;28;20295;-85
2022/06/18 15:56:09;;;;;;;;;;;;;;;;;;4969805;28;19910;-84
2022/06/18 15:58:35;;;;;;;;;;;;;;;;;;4965706;28;19918;-85
2022/06/18 16:01:01;;;;;;;;;;;;;;;;;;4967571;28;19960;-85
2022/06/18 16:03:27;;;;;;;;;;;;;;;;;;4966705;28;19910;-87
2022/06/18 16:05:53;;;;;;;;;;;;;;;;;;4981311;28;19949;-86
2022/06/18 16:08:19;;;;;;;;;;;;;;;;;;4962566;28;19960;-85
2022/06/18 16:10:44;;;;;;;;;;;;;;;;;;4964777;28;19914;-85
2022/06/18 16:13:10;;;;;;;;;;;;;;;;;;4970335;28;20267;-86
2022/06/18 16:15:36;;;;;;;;;;;;;;;;;;4949166;28;19957;-85
2022/06/18 16:18:02;;;;;;;;;;;;;;;;;;4984230;28;19919;-85
2022/06/18 16:20:28;;;;;;;;;;;;;;;;;;4978411;28;19917;-86
2022/06/18 16:22:54;;;;;;;;;;;;;;;;;;4983709;28;19922;-85
2022/06/18 16:25:20;;;;;;;;;;;;;;;;;;4966373;28;19916;-87
2022/06/18 16:27:46;;;;;;;;;;;;;;;;;;4982439;28;20341;-85
2022/06/18 16:30:12;;;;;;;;;;;;;;;;;;4963653;28;19913;-85
2022/06/18 16:32:38;;;;;;;;;;;;;;;;;;4962381;28;20324;-86
2022/06/18 16:35:04;;;;;;;;;;;;;;;;;;4970198;28;20262;-86
2022/06/18 16:37:30;;;;;;;;;;;;;;;;;;4980291;28;19961;-86
2022/06/18 16:39:56;;;;;;;;;;;;;;;;;;4966350;28;19925;-85
2022/06/18 16:42:22;;;;;;;;;;;;;;;;;;4967636;28;19913;-86
2022/06/18 16:44:48;;;;;;;;;;;;;;;;;;4960715;28;20649;-85
2022/06/18 16:47:14;;;;;;;;;;;;;;;;;;4979430;28;19910;-85
2022/06/18 16:49:39;;;;;;;;;;;;;;;;;;4963241;28;19921;-85
2022/06/18 16:52:05;;;;;;;;;;;;;;;;;;4967980;28;19999;-85
2022/06/18 16:54:31;;;;;;;;;;;;;;;;;;4962022;28;19921;-85
2022/06/18 16:56:57;;;;;;;;;;;;;;;;;;4964871;28;19917;-86
2022/06/18 16:59:23;;;;;;;;;;;;;;;;;;4967691;28;20243;-85
2022/06/18 17:01:49;;;;;;;;;;;;;;;;;;4963228;28;20353;-85